Time;durP1;ratioP1;P1;durP2;ratioP2;P2;SDS_P1;SDS_P2;PMS_P1;PMS_P2;Temp;Humidity;BMP_temperature;BMP_pressure;BME280_temperature;BME280_humidity;BME280_pressure;Samples;Min_cycle;Max_cycle;Signal;HPM_P1;HPM_P2
2023/11/29 00:01:06;;;;;;;;;;;;;;;-1.76;80.59;100129.84;4224112;28;19970;-67
2023/11/29 00:03:07;;;;;;;;;;;;;;;-1.78;80.47;100137.06;4222219;28;20330;-66
2023/11/29 00:05:10;;;;;;;;;;;;;;;-1.80;80.67;100131.06;4224942;28;20437;-67
2023/11/29 00:07:12;;;;;;;;;;;;;;;-1.77;81.25;100125.53;4222226;28;19963;-66
2023/11/29 00:09:14;;;;;;;;;;;;;;;-1.75;81.09;100128.06;4224386;28;20050;-67
2023/11/29 00:11:16;;;;;;;;;;;;;;;-1.76;80.94;100124.56;4223518;28;20023;-67
2023/11/29 00:13:19;;;;;;;;;;;;;;;-1.77;80.94;100122.88;4223560;28;20452;-67
2023/11/29 00:15:23;;;;;;;;;;;;;;;-1.78;80.98;100120.34;4221343;28;19975;-67
2023/11/29 00:17:26;;;;;;;;;;;;;;;-1.78;80.96;100120.34;4224272;28;19928;-68
2023/11/29 00:19:28;;;;;;;;;;;;;;;-1.79;81.09;100118.66;4224621;28;19955;-67
2023/11/29 00:21:32;;;;;;;;;;;;;;;-1.81;81.15;100116.94;4224550;28;20016;-67
2023/11/29 00:23:34;;;;;;;;;;;;;;;-1.81;81.24;100119.59;4223926;28;20394;-67
2023/11/29 00:25:36;;;;;;;;;;;;;;;-1.83;81.00;100115.41;4223719;28;20010;-66
2023/11/29 00:27:38;;;;;;;;;;;;;;;-1.85;81.19;100115.50;4224076;28;20309;-67
2023/11/29 00:29:39;;;;;;;;;;;;;;;-1.85;81.18;100112.00;4222432;28;20015;-67
2023/11/29 00:31:42;;;;;;;;;;;;;;;-1.89;81.21;100114.03;4222877;27;20023;-67
2023/11/29 00:33:44;;;;;;;;;;;;;;;-1.90;81.45;100111.50;4217640;28;19966;-67
2023/11/29 00:35:46;;;;;;;;;;;;;;;-1.91;81.59;100117.72;4224178;28;20015;-67
2023/11/29 00:37:48;;;;;;;;;;;;;;;-1.92;81.51;100118.72;4222914;27;20019;-67
2023/11/29 00:39:50;;;;;;;;;;;;;;;-1.91;81.71;100120.38;4223795;28;19952;-67
2023/11/29 00:41:52;;;;;;;;;;;;;;;-1.90;81.87;100125.56;4222988;28;19958;-67
2023/11/29 00:43:54;;;;;;;;;;;;;;;-1.88;81.96;100120.16;4221925;28;20015;-67
2023/11/29 00:45:55;;;;;;;;;;;;;;;-1.88;82.13;100118.38;4223012;28;20824;-66
2023/11/29 00:47:59;;;;;;;;;;;;;;;-1.88;82.07;100118.38;4222162;28;19935;-66
2023/11/29 00:50:01;;;;;;;;;;;;;;;-1.85;82.26;100115.50;4223059;28;20010;-67
2023/11/29 00:52:02;;;;;;;;;;;;;;;-1.85;82.31;100120.81;4223508;28;20026;-67
2023/11/29 00:54:04;;;;;;;;;;;;;;;-1.84;82.15;100116.34;4204565;28;20031;-67
2023/11/29 00:56:07;;;;;;;;;;;;;;;-1.83;82.42;100118.03;4222609;28;20390;-67
2023/11/29 00:58:08;;;;;;;;;;;;;;;-1.82;82.38;100114.41;4222821;28;19935;-66
2023/11/29 01:00:14;;;;;;;;;;;;;;;-1.82;82.52;100112.63;4221471;28;19924;-67
2023/11/29 01:02:16;;;;;;;;;;;;;;;-1.82;82.57;100110.00;4221548;28;20046;-67
2023/11/29 01:04:19;;;;;;;;;;;;;;;-1.82;82.65;100109.13;4220500;28;20022;-66
2023/11/29 01:06:21;;;;;;;;;;;;;;;-1.81;82.19;100121.41;4222998;28;20019;-67
2023/11/29 01:08:25;;;;;;;;;;;;;;;-1.82;82.05;100117.94;4222650;28;20018;-67
2023/11/29 01:10:27;;;;;;;;;;;;;;;-1.83;81.56;100110.94;4222132;28;20023;-67
2023/11/29 01:12:29;;;;;;;;;;;;;;;-1.86;81.48;100111.16;4220218;28;20019;-68
2023/11/29 01:14:31;;;;;;;;;;;;;;;-1.89;81.18;100114.03;4221569;28;20014;-68
2023/11/29 01:16:33;;;;;;;;;;;;;;;-1.92;80.75;100108.97;4221701;28;20018;-68
2023/11/29 01:18:35;;;;;;;;;;;;;;;-1.94;80.61;100110.88;4220499;28;20026;-67
2023/11/29 01:20:39;;;;;;;;;;;;;;;-1.97;80.42;100116.41;4221783;28;20018;-67
2023/11/29 01:22:42;;;;;;;;;;;;;;;-1.98;80.50;100111.22;4237351;27;20018;-67
2023/11/29 01:24:44;;;;;;;;;;;;;;;-2.00;80.40;100106.03;4221932;28;20038;-66
2023/11/29 01:26:44;;;;;;;;;;;;;;;-2.02;80.28;100113.25;4219704;27;20082;-67
2023/11/29 01:28:47;;;;;;;;;;;;;;;-2.04;80.31;100105.44;4221481;28;20030;-68
2023/11/29 01:30:49;;;;;;;;;;;;;;;-2.04;80.26;100096.63;4220879;28;20018;-67
2023/11/29 01:32:49;;;;;;;;;;;;;;;-2.07;80.39;100100.34;4201800;28;20019;-68
2023/11/29 01:34:51;;;;;;;;;;;;;;;-2.07;80.27;100091.53;4219714;28;20421;-67
2023/11/29 01:36:54;;;;;;;;;;;;;;;-2.08;80.26;100093.38;4220086;28;20094;-67
2023/11/29 01:38:56;;;;;;;;;;;;;;;-2.13;80.36;100084.91;4217156;28;20035;-67
2023/11/29 01:40:59;;;;;;;;;;;;;;;-2.12;80.41;100089.25;4220533;28;20185;-69
2023/11/29 01:43:02;;;;;;;;;;;;;;;-2.13;80.46;100084.06;4219281;28;20011;-69
2023/11/29 01:45:03;;;;;;;;;;;;;;;-2.16;80.36;100090.44;4221921;28;20011;-69
2023/11/29 01:47:06;;;;;;;;;;;;;;;-2.17;80.58;100089.56;4203747;28;20362;-66
2023/11/29 01:49:08;;;;;;;;;;;;;;;-2.19;80.37;100093.31;4204206;28;20020;-69
2023/11/29 01:51:10;;;;;;;;;;;;;;;-2.19;80.40;100085.38;4202336;28;20027;-68
2023/11/29 01:53:13;;;;;;;;;;;;;;;-2.18;80.45;100079.97;4221813;28;20031;-66
2023/11/29 01:55:15;;;;;;;;;;;;;;;-2.18;80.41;100076.44;4219847;28;20036;-69
2023/11/29 01:57:18;;;;;;;;;;;;;;;-2.17;80.38;100073.69;4221559;28;20022;-68
2023/11/29 01:59:20;;;;;;;;;;;;;;;-2.16;80.36;100077.22;4236661;27;20589;-69
2023/11/29 02:01:22;;;;;;;;;;;;;;;-2.18;80.63;100074.66;4203217;28;20433;-67
2023/11/29 02:03:24;;;;;;;;;;;;;;;-2.19;80.58;100077.44;4221655;28;19966;-70
2023/11/29 02:05:25;;;;;;;;;;;;;;;-2.20;80.74;100078.38;4218951;28;20638;-70
2023/11/29 02:07:27;;;;;;;;;;;;;;;-2.20;80.81;100071.28;4222182;28;19958;-68
2023/11/29 02:09:30;;;;;;;;;;;;;;;-2.18;80.78;100057.94;4223043;28;20016;-69
2023/11/29 02:11:31;;;;;;;;;;;;;;;-2.19;80.83;100059.75;4223722;28;19966;-68
2023/11/29 02:13:33;;;;;;;;;;;;;;;-2.17;80.69;100055.19;4223377;28;20405;-70
2023/11/29 02:15:34;;;;;;;;;;;;;;;-2.15;80.69;100052.41;4205460;28;19955;-68
2023/11/29 02:17:36;;;;;;;;;;;;;;;-2.16;80.77;100048.09;4222970;28;20017;-71
2023/11/29 02:19:38;;;;;;;;;;;;;;;-2.16;80.76;100040.16;4223456;28;19946;-71
2023/11/29 02:21:41;;;;;;;;;;;;;;;-2.14;80.93;100038.25;4222133;28;19963;-69
2023/11/29 02:23:43;;;;;;;;;;;;;;;-2.15;80.80;100027.78;4223116;28;19959;-68
2023/11/29 02:25:47;;;;;;;;;;;;;;;-2.13;80.96;100028.50;4221484;28;20409;-69
2023/11/29 02:27:48;;;;;;;;;;;;;;;-2.14;80.98;100035.59;4203569;28;19967;-69
2023/11/29 02:29:50;;;;;;;;;;;;;;;-2.13;80.86;100032.00;4222773;28;19924;-70
2023/11/29 02:31:52;;;;;;;;;;;;;;;-2.12;80.87;100028.38;4223751;28;19938;-70
2023/11/29 02:33:54;;;;;;;;;;;;;;;-2.11;80.88;100027.44;4224046;28;20397;-69
2023/11/29 02:35:56;;;;;;;;;;;;;;;-2.10;81.07;100021.19;4224530;28;19971;-69
2023/11/29 02:37:58;;;;;;;;;;;;;;;-2.11;80.89;100014.19;4206209;28;19955;-70
2023/11/29 02:40:00;;;;;;;;;;;;;;;-2.10;80.94;100005.31;4223364;28;20414;-69
2023/11/29 02:42:04;;;;;;;;;;;;;;;-2.09;80.87;100006.16;4206699;28;19924;-69
2023/11/29 02:44:06;;;;;;;;;;;;;;;-2.09;80.71;99998.22;4238503;27;19959;-69
2023/11/29 02:46:08;;;;;;;;;;;;;;;-2.08;80.78;99998.09;4222743;28;19972;-69
2023/11/29 02:48:10;;;;;;;;;;;;;;;-2.08;80.60;99994.63;4223273;28;19959;-68
2023/11/29 02:50:14;;;;;;;;;;;;;;;-2.09;80.46;99992.94;4223485;28;20047;-69
2023/11/29 02:52:16;;;;;;;;;;;;;;;-2.07;80.30;99991.00;4222805;28;19967;-69
2023/11/29 02:54:19;;;;;;;;;;;;;;;-2.05;80.49;99987.28;4221393;28;19959;-70
2023/11/29 02:56:21;;;;;;;;;;;;;;;-2.03;80.27;99993.31;4222998;28;20393;-68
2023/11/29 02:58:24;;;;;;;;;;;;;;;-2.01;80.08;100003.78;4220019;28;20034;-70
2023/11/29 03:00:26;;;;;;;;;;;;;;;-2.02;79.85;99992.34;4222628;28;19946;-70
2023/11/29 03:02:28;;;;;;;;;;;;;;;-2.02;79.83;99995.00;4219927;28;19932;-70
2023/11/29 03:04:31;;;;;;;;;;;;;;;-2.02;79.88;99992.34;4220471;28;19958;-67
2023/11/29 03:06:33;;;;;;;;;;;;;;;-2.03;79.78;99987.19;4221001;28;19955;-70
2023/11/29 03:08:35;;;;;;;;;;;;;;;-2.02;79.80;99984.41;4223191;28;19955;-68
2023/11/29 03:10:37;;;;;;;;;;;;;;;-2.02;79.80;99989.72;4222121;28;20016;-70
2023/11/29 03:12:39;;;;;;;;;;;;;;;-2.02;79.57;99983.59;4221550;28;19992;-69
2023/11/29 03:14:42;;;;;;;;;;;;;;;-2.04;79.48;99972.25;4219835;28;19960;-67
2023/11/29 03:16:44;;;;;;;;;;;;;;;-2.02;79.67;99978.28;4221002;28;20030;-67
2023/11/29 03:18:46;;;;;;;;;;;;;;;-2.03;79.50;99980.06;4212683;28;19935;-70
2023/11/29 03:20:48;;;;;;;;;;;;;;;-2.04;79.57;99973.13;4188095;28;19931;-67
2023/11/29 03:22:50;;;;;;;;;;;;;;;-2.04;79.54;99969.59;4220731;28;20015;-70
2023/11/29 03:24:52;;;;;;;;;;;;;;;-2.05;79.61;99967.94;4220965;28;19932;-67
2023/11/29 03:26:54;;;;;;;;;;;;;;;-2.04;79.50;99964.31;4208312;28;20011;-70
2023/11/29 03:28:56;;;;;;;;;;;;;;;-2.05;79.48;99978.53;4226034;28;20030;-70
2023/11/29 03:30:59;;;;;;;;;;;;;;;-2.04;79.33;99964.31;4206219;28;20381;-70
2023/11/29 03:33:00;;;;;;;;;;;;;;;-2.05;79.50;99958.19;4222540;28;19962;-70
2023/11/29 03:35:03;;;;;;;;;;;;;;;-2.05;79.29;99963.47;4222649;28;20385;-70
2023/11/29 03:37:05;;;;;;;;;;;;;;;-2.06;79.15;99955.66;4225661;28;19989;-69
2023/11/29 03:39:06;;;;;;;;;;;;;;;-2.05;79.18;99958.19;4224730;28;20026;-69
2023/11/29 03:41:08;;;;;;;;;;;;;;;-2.05;79.01;99947.59;4224283;28;19935;-69
2023/11/29 03:43:09;;;;;;;;;;;;;;;-2.05;79.00;99944.13;4223047;28;19924;-69
2023/11/29 03:45:11;;;;;;;;;;;;;;;-2.05;78.80;99939.66;4223207;28;20063;-69
2023/11/29 03:47:15;;;;;;;;;;;;;;;-2.04;78.74;99932.56;4222300;28;20026;-69
2023/11/29 03:49:17;;;;;;;;;;;;;;;-2.05;78.69;99933.53;4207001;28;19975;-69
2023/11/29 03:51:19;;;;;;;;;;;;;;;-2.03;78.57;99923.66;4220799;28;20453;-69
2023/11/29 03:53:21;;;;;;;;;;;;;;;-2.05;78.48;99922.94;4223815;28;19924;-69
2023/11/29 03:55:23;;;;;;;;;;;;;;;-2.05;78.54;99917.66;4224433;28;20069;-69
2023/11/29 03:57:25;;;;;;;;;;;;;;;-2.04;78.65;99906.09;4223960;28;20016;-69
2023/11/29 03:59:27;;;;;;;;;;;;;;;-2.06;78.62;99897.44;4223590;28;20402;-69
2023/11/29 04:01:31;;;;;;;;;;;;;;;-2.05;78.55;99892.03;4224644;28;20451;-69
2023/11/29 04:03:33;;;;;;;;;;;;;;;-2.06;78.26;99894.78;4224308;28;20026;-70
2023/11/29 04:05:35;;;;;;;;;;;;;;;-2.06;78.18;99886.84;4221840;28;20023;-69
2023/11/29 04:07:37;;;;;;;;;;;;;;;-2.06;78.24;99884.22;4208256;28;19924;-69
2023/11/29 04:09:40;;;;;;;;;;;;;;;-2.07;78.23;99887.81;4229937;28;19999;-70
2023/11/29 04:11:45;;;;;;;;;;;;;;;-2.08;78.01;99892.25;4223245;28;20018;-69
2023/11/29 04:13:47;;;;;;;;;;;;;;;-2.09;78.15;99879.97;4222302;28;19951;-69
2023/11/29 04:15:49;;;;;;;;;;;;;;;-2.11;78.20;99868.69;4206656;28;20361;-70
2023/11/29 04:17:51;;;;;;;;;;;;;;;-2.11;78.06;99865.19;4223186;28;19956;-69
2023/11/29 04:19:55;;;;;;;;;;;;;;;-2.13;78.21;99875.03;4221815;28;20023;-69
2023/11/29 04:21:56;;;;;;;;;;;;;;;-2.11;78.14;99873.13;4220914;28;19928;-69
2023/11/29 04:23:58;;;;;;;;;;;;;;;-2.12;78.39;99864.34;4223122;28;19928;-69
2023/11/29 04:26:00;;;;;;;;;;;;;;;-2.12;78.17;99856.41;4220627;28;19924;-70
2023/11/29 04:28:03;;;;;;;;;;;;;;;-2.11;78.08;99867.84;4223570;28;20488;-69
2023/11/29 04:30:06;;;;;;;;;;;;;;;-2.12;77.91;99852.94;4222649;28;19975;-69
2023/11/29 04:32:08;;;;;;;;;;;;;;;-2.12;77.82;99853.75;4224151;28;20011;-69
2023/11/29 04:34:09;;;;;;;;;;;;;;;-2.11;77.72;99854.63;4223788;28;20506;-69
2023/11/29 04:36:13;;;;;;;;;;;;;;;-2.12;77.68;99844.97;4222973;27;20366;-70
2023/11/29 04:38:15;;;;;;;;;;;;;;;-2.11;77.83;99841.38;4223611;28;20098;-70
2023/11/29 04:40:18;;;;;;;;;;;;;;;-2.11;77.81;99830.81;4204400;28;20027;-69
2023/11/29 04:42:20;;;;;;;;;;;;;;;-2.12;77.78;99831.75;4205388;28;19966;-69
2023/11/29 04:44:22;;;;;;;;;;;;;;;-2.11;77.64;99822.88;4220538;28;19960;-69
2023/11/29 04:46:24;;;;;;;;;;;;;;;-2.10;77.85;99816.59;4222326;28;20023;-69
2023/11/29 04:48:26;;;;;;;;;;;;;;;-2.09;77.73;99807.72;4222349;28;19962;-70
2023/11/29 04:50:28;;;;;;;;;;;;;;;-2.09;77.59;99815.66;4222879;28;19975;-70
2023/11/29 04:52:33;;;;;;;;;;;;;;;-2.08;77.82;99812.88;4224025;28;19935;-69
2023/11/29 04:54:34;;;;;;;;;;;;;;;-2.06;77.38;99826.00;4222988;28;20018;-70
2023/11/29 04:56:36;;;;;;;;;;;;;;;-2.05;77.33;99822.41;4221280;28;19928;-70
2023/11/29 04:58:40;;;;;;;;;;;;;;;-2.04;77.43;99821.41;4223328;28;20015;-70
2023/11/29 05:00:41;;;;;;;;;;;;;;;-2.03;77.37;99818.66;4222901;28;20006;-69
2023/11/29 05:02:43;;;;;;;;;;;;;;;-2.02;77.08;99814.22;4223193;28;20510;-69
2023/11/29 05:04:46;;;;;;;;;;;;;;;-2.04;77.03;99798.47;4222071;28;19974;-69
2023/11/29 05:06:50;;;;;;;;;;;;;;;-2.03;76.97;99801.94;4220743;28;20019;-69
2023/11/29 05:08:54;;;;;;;;;;;;;;;-2.02;77.03;99807.13;4238889;27;19928;-69
2023/11/29 05:10:55;;;;;;;;;;;;;;;-2.01;77.26;99800.00;4222209;28;20023;-69
2023/11/29 05:12:56;;;;;;;;;;;;;;;-2.03;77.29;99804.59;4221820;28;19928;-69
2023/11/29 05:14:59;;;;;;;;;;;;;;;-2.04;77.31;99801.13;4220522;28;20360;-69
2023/11/29 05:17:01;;;;;;;;;;;;;;;-2.03;77.35;99802.78;4223166;28;20015;-70
2023/11/29 05:19:05;;;;;;;;;;;;;;;-2.03;77.40;99800.13;4222038;28;20027;-69
2023/11/29 05:21:08;;;;;;;;;;;;;;;-2.02;77.55;99803.63;4222243;28;20006;-70
2023/11/29 05:23:10;;;;;;;;;;;;;;;-2.02;77.50;99795.69;4222764;28;19959;-70
2023/11/29 05:25:14;;;;;;;;;;;;;;;-2.03;77.59;99791.34;4223254;28;20030;-70
2023/11/29 05:27:16;;;;;;;;;;;;;;;-2.03;77.63;99789.53;4222010;28;20031;-69
2023/11/29 05:29:18;;;;;;;;;;;;;;;-2.00;77.78;99794.59;4222394;28;20024;-70
2023/11/29 05:31:19;;;;;;;;;;;;;;;-1.99;77.50;99792.81;4221672;28;20019;-70
2023/11/29 05:33:21;;;;;;;;;;;;;;;-1.99;77.59;99792.81;4222111;28;20018;-70
2023/11/29 05:35:23;;;;;;;;;;;;;;;-1.98;77.52;99786.53;4223300;28;20011;-69
2023/11/29 05:37:25;;;;;;;;;;;;;;;-1.97;77.54;99798.00;4222667;28;20032;-70
2023/11/29 05:39:27;;;;;;;;;;;;;;;-1.97;77.56;99790.06;4222134;28;20015;-70
2023/11/29 05:41:31;;;;;;;;;;;;;;;-1.94;77.48;99789.78;4202864;28;20024;-70
2023/11/29 05:43:33;;;;;;;;;;;;;;;-1.94;77.50;99795.06;4220460;28;20453;-69
2023/11/29 05:45:35;;;;;;;;;;;;;;;-1.92;77.36;99795.81;4221504;28;20022;-70
2023/11/29 05:47:37;;;;;;;;;;;;;;;-1.92;77.47;99791.34;4221417;28;20357;-69
2023/11/29 05:49:39;;;;;;;;;;;;;;;-1.91;77.39;99800.13;4222126;28;19967;-69
2023/11/29 05:51:41;;;;;;;;;;;;;;;-1.91;77.54;99800.13;4220012;28;20035;-70
2023/11/29 05:53:43;;;;;;;;;;;;;;;-1.91;77.91;99792.19;4221870;28;20026;-69
2023/11/29 05:55:45;;;;;;;;;;;;;;;-1.90;77.71;99791.25;4221818;28;20015;-69
2023/11/29 05:57:49;;;;;;;;;;;;;;;-1.91;77.76;99792.19;4221725;28;20466;-69
2023/11/29 05:59:50;;;;;;;;;;;;;;;-1.89;77.88;99791.13;4221037;28;20002;-69
2023/11/29 06:01:54;;;;;;;;;;;;;;;-1.87;77.81;99797.13;4221461;28;20350;-70
2023/11/29 06:03:56;;;;;;;;;;;;;;;-1.87;77.84;99789.19;4222908;28;20435;-70
2023/11/29 06:05:58;;;;;;;;;;;;;;;-1.85;77.83;99789.06;4221485;28;19959;-69
2023/11/29 06:08:00;;;;;;;;;;;;;;;-1.83;77.78;99795.94;4220837;28;19962;-70
2023/11/29 06:10:01;;;;;;;;;;;;;;;-1.82;77.89;99783.53;4221896;28;20448;-69
2023/11/29 06:12:03;;;;;;;;;;;;;;;-1.81;78.09;99795.81;4223101;28;20042;-69
2023/11/29 06:14:07;;;;;;;;;;;;;;;-1.79;77.92;99782.47;4222714;28;19955;-69
2023/11/29 06:16:08;;;;;;;;;;;;;;;-1.79;78.21;99790.41;4222249;28;19951;-69
2023/11/29 06:18:10;;;;;;;;;;;;;;;-1.78;78.43;99781.50;4221142;28;20678;-69
2023/11/29 06:20:13;;;;;;;;;;;;;;;-1.76;78.36;99784.84;4222115;28;19991;-69
2023/11/29 06:22:15;;;;;;;;;;;;;;;-1.75;78.45;99787.38;4221810;28;20058;-69
2023/11/29 06:24:17;;;;;;;;;;;;;;;-1.75;78.51;99784.75;4221772;28;19924;-70
2023/11/29 06:26:19;;;;;;;;;;;;;;;-1.75;78.78;99786.56;4220471;28;19928;-69
2023/11/29 06:28:22;;;;;;;;;;;;;;;-1.75;78.96;99778.63;4221656;28;20023;-69
2023/11/29 06:30:26;;;;;;;;;;;;;;;-1.76;79.21;99788.34;4204131;28;20019;-69
2023/11/29 06:32:28;;;;;;;;;;;;;;;-1.74;79.38;99785.56;4221024;28;20595;-69
2023/11/29 06:34:30;;;;;;;;;;;;;;;-1.73;79.50;99781.97;4222084;28;20030;-67
2023/11/29 06:36:32;;;;;;;;;;;;;;;-1.72;79.88;99776.56;4221957;28;19964;-69
2023/11/29 06:38:33;;;;;;;;;;;;;;;-1.68;80.07;99788.59;4220693;28;20015;-69
2023/11/29 06:40:35;;;;;;;;;;;;;;;-1.69;80.56;99786.91;4219225;28;20015;-69
2023/11/29 06:42:38;;;;;;;;;;;;;;;-1.69;80.66;99775.47;4221050;28;20026;-69
2023/11/29 06:44:40;;;;;;;;;;;;;;;-1.70;81.16;99782.56;4220870;28;19924;-69
2023/11/29 06:46:43;;;;;;;;;;;;;;;-1.71;81.63;99783.53;4220592;28;20011;-69
2023/11/29 06:48:45;;;;;;;;;;;;;;;-1.67;81.53;99781.50;4221701;28;19956;-70
2023/11/29 06:50:47;;;;;;;;;;;;;;;-1.68;82.03;99788.59;4221883;28;20452;-69
2023/11/29 06:52:49;;;;;;;;;;;;;;;-1.69;82.12;99789.56;4220381;28;19928;-69
2023/11/29 06:54:51;;;;;;;;;;;;;;;-1.69;82.38;99789.56;4221222;28;20010;-69
2023/11/29 06:56:53;;;;;;;;;;;;;;;-1.68;82.37;99795.69;4203758;28;19978;-69
2023/11/29 06:58:54;;;;;;;;;;;;;;;-1.70;82.42;99785.22;4221888;28;20015;-69
2023/11/29 07:00:56;;;;;;;;;;;;;;;-1.70;82.69;99784.38;4224757;28;19966;-69
2023/11/29 07:02:59;;;;;;;;;;;;;;;-1.70;82.58;99785.22;4224490;28;19967;-69
2023/11/29 07:05:04;;;;;;;;;;;;;;;-1.70;82.69;99782.56;4225334;28;20447;-69
2023/11/29 07:07:06;;;;;;;;;;;;;;;-1.70;82.66;99787.03;4225062;28;19975;-69
2023/11/29 07:09:08;;;;;;;;;;;;;;;-1.69;82.81;99786.06;4223539;28;19959;-69
2023/11/29 07:11:09;;;;;;;;;;;;;;;-1.69;82.95;99780.78;4225527;28;19959;-69
2023/11/29 07:13:12;;;;;;;;;;;;;;;-1.70;82.88;99785.22;4225919;28;19931;-69
2023/11/29 07:15:14;;;;;;;;;;;;;;;-1.70;82.98;99787.84;4225285;28;19971;-70
2023/11/29 07:17:16;;;;;;;;;;;;;;;-1.67;82.95;99778.84;4226094;28;19959;-69
2023/11/29 07:19:19;;;;;;;;;;;;;;;-1.67;82.93;99774.38;4224443;28;20010;-69
2023/11/29 07:21:20;;;;;;;;;;;;;;;-1.66;82.85;99772.59;4225452;28;20022;-70
2023/11/29 07:23:22;;;;;;;;;;;;;;;-1.67;82.97;99770.91;4224795;28;19977;-69
2023/11/29 07:25:24;;;;;;;;;;;;;;;-1.65;82.82;99776.91;4224736;28;19924;-70
2023/11/29 07:27:26;;;;;;;;;;;;;;;-1.64;82.93;99775.94;4225703;28;20462;-70
2023/11/29 07:29:29;;;;;;;;;;;;;;;-1.60;82.73;99773.88;4224132;27;20023;-70
2023/11/29 07:31:31;;;;;;;;;;;;;;;-1.59;82.75;99772.94;4204327;28;20018;-70
2023/11/29 07:33:33;;;;;;;;;;;;;;;-1.60;82.66;99766.78;4225479;28;19966;-69
2023/11/29 07:35:37;;;;;;;;;;;;;;;-1.61;82.59;99773.06;4224369;28;19975;-70
2023/11/29 07:37:38;;;;;;;;;;;;;;;-1.60;82.62;99777.38;4224166;28;19970;-70
2023/11/29 07:39:40;;;;;;;;;;;;;;;-1.61;82.62;99770.41;4225732;28;19970;-68
2023/11/29 07:41:42;;;;;;;;;;;;;;;-1.61;82.67;99762.47;4223656;28;19955;-70
2023/11/29 07:43:43;;;;;;;;;;;;;;;-1.61;82.52;99773.06;4223729;28;20019;-68
2023/11/29 07:45:46;;;;;;;;;;;;;;;-1.61;82.74;99769.53;4224277;28;20429;-69
2023/11/29 07:47:47;;;;;;;;;;;;;;;-1.60;82.74;99764.13;4223554;28;19964;-70
2023/11/29 07:49:49;;;;;;;;;;;;;;;-1.59;82.66;99767.63;4228041;28;19959;-68
2023/11/29 07:51:52;;;;;;;;;;;;;;;-1.58;82.60;99764.88;4227812;28;19962;-69
2023/11/29 07:53:54;;;;;;;;;;;;;;;-1.57;82.50;99765.69;4227463;28;19986;-68
2023/11/29 07:55:56;;;;;;;;;;;;;;;-1.55;82.59;99763.75;4227650;28;19967;-68
2023/11/29 07:57:57;;;;;;;;;;;;;;;-1.55;82.57;99761.97;4225953;28;19955;-70
2023/11/29 07:59:59;;;;;;;;;;;;;;;-1.51;82.44;99762.56;4208618;28;19962;-70
2023/11/29 08:02:01;;;;;;;;;;;;;;;-1.51;82.44;99763.38;4226057;28;19947;-68
2023/11/29 08:04:04;;;;;;;;;;;;;;;-1.50;82.29;99757.13;4226956;28;19986;-68
2023/11/29 08:06:07;;;;;;;;;;;;;;;-1.48;82.13;99763.16;4227561;28;19935;-68
2023/11/29 08:08:11;;;;;;;;;;;;;;;-1.48;82.02;99762.31;4226457;28;19956;-68
2023/11/29 08:10:13;;;;;;;;;;;;;;;-1.49;82.28;99756.19;4224741;28;19971;-69
2023/11/29 08:12:16;;;;;;;;;;;;;;;-1.48;82.07;99757.84;4222610;28;19966;-69
2023/11/29 08:14:18;;;;;;;;;;;;;;;-1.48;82.17;99763.16;4226498;28;19951;-68
2023/11/29 08:16:20;;;;;;;;;;;;;;;-1.46;82.42;99763.88;4227410;28;20406;-70
2023/11/29 08:18:22;;;;;;;;;;;;;;;-1.41;82.29;99762.66;4226843;28;19960;-68
2023/11/29 08:20:24;;;;;;;;;;;;;;;-1.43;82.45;99761.94;4227169;28;19966;-68
2023/11/29 08:22:26;;;;;;;;;;;;;;;-1.42;82.59;99764.47;4226771;28;19970;-68
2023/11/29 08:24:30;;;;;;;;;;;;;;;-1.41;82.70;99760.00;4225170;28;19951;-68
2023/11/29 08:26:32;;;;;;;;;;;;;;;-1.43;83.15;99754.84;4225367;27;20427;-69
2023/11/29 08:28:33;;;;;;;;;;;;;;;-1.42;83.27;99758.34;4225573;28;19959;-68
2023/11/29 08:30:35;;;;;;;;;;;;;;;-1.42;83.33;99755.69;4224289;28;19959;-68
2023/11/29 08:32:37;;;;;;;;;;;;;;;-1.43;83.58;99761.94;4225468;28;20026;-68
2023/11/29 08:34:39;;;;;;;;;;;;;;;-1.43;83.68;99759.28;4224500;28;19951;-68
2023/11/29 08:36:41;;;;;;;;;;;;;;;-1.44;83.66;99758.47;4223664;28;20006;-68
2023/11/29 08:38:43;;;;;;;;;;;;;;;-1.45;83.76;99757.59;4224699;28;19958;-70
2023/11/29 08:40:47;;;;;;;;;;;;;;;-1.43;83.74;99752.19;4225889;28;19978;-68
2023/11/29 08:42:49;;;;;;;;;;;;;;;-1.42;83.50;99755.69;4224693;28;19959;-68
2023/11/29 08:44:51;;;;;;;;;;;;;;;-1.41;83.55;99762.66;4224964;28;19962;-68
2023/11/29 08:46:53;;;;;;;;;;;;;;;-1.41;83.32;99757.34;4224700;28;20403;-70
2023/11/29 08:48:56;;;;;;;;;;;;;;;-1.41;83.27;99746.75;4224306;28;20392;-68
2023/11/29 08:50:58;;;;;;;;;;;;;;;-1.42;83.25;99756.53;4223753;28;19967;-68
2023/11/29 08:52:59;;;;;;;;;;;;;;;-1.42;83.39;99753.88;4224839;28;20016;-68
2023/11/29 08:55:01;;;;;;;;;;;;;;;-1.43;83.31;99749.53;4224457;28;19949;-69
2023/11/29 08:57:04;;;;;;;;;;;;;;;-1.40;83.55;99748.44;4224041;28;19964;-68
2023/11/29 08:59:06;;;;;;;;;;;;;;;-1.40;83.53;99754.59;4224233;28;19955;-68
2023/11/29 09:01:09;;;;;;;;;;;;;;;-1.39;83.62;99748.31;4223930;28;19960;-68
2023/11/29 09:03:11;;;;;;;;;;;;;;;-1.38;83.68;99757.09;4223595;28;19970;-68
2023/11/29 09:05:13;;;;;;;;;;;;;;;-1.39;83.84;99745.69;4224268;28;19955;-68
2023/11/29 09:07:14;;;;;;;;;;;;;;;-1.38;83.62;99734.13;4224750;28;20461;-68
2023/11/29 09:09:17;;;;;;;;;;;;;;;-1.39;83.63;99737.72;4224880;28;20357;-67
2023/11/29 09:11:19;;;;;;;;;;;;;;;-1.39;83.66;99740.38;4222534;28;19931;-69
2023/11/29 09:13:22;;;;;;;;;;;;;;;-1.37;83.65;99740.25;4224302;28;20050;-70
2023/11/29 09:15:25;;;;;;;;;;;;;;;-1.37;83.65;99733.16;4224304;28;20018;-68
2023/11/29 09:17:27;;;;;;;;;;;;;;;-1.35;83.67;99730.38;4223629;28;20029;-68
2023/11/29 09:19:28;;;;;;;;;;;;;;;-1.35;83.70;99736.53;4223609;28;20026;-68
2023/11/29 09:21:35;;;;;;;;;;;;;;;-1.34;83.52;99732.06;4222776;28;19964;-68
2023/11/29 09:23:37;;;;;;;;;;;;;;;-1.34;83.43;99732.91;4223793;28;20053;-68
2023/11/29 09:25:39;;;;;;;;;;;;;;;-1.33;83.25;99724.00;4223647;28;19971;-68
2023/11/29 09:27:41;;;;;;;;;;;;;;;-1.33;83.34;99731.09;4223621;28;20479;-68
2023/11/29 09:29:43;;;;;;;;;;;;;;;-1.32;83.24;99730.97;4221328;28;19960;-68
2023/11/29 09:31:45;;;;;;;;;;;;;;;-1.32;83.35;99725.69;4223920;28;20019;-68
2023/11/29 09:33:47;;;;;;;;;;;;;;;-1.32;83.31;99724.81;4223151;28;19987;-68
2023/11/29 09:35:48;;;;;;;;;;;;;;;-1.32;83.21;99723.03;4223676;28;19959;-68
2023/11/29 09:37:50;;;;;;;;;;;;;;;-1.31;83.18;99721.22;4222114;28;19956;-68
2023/11/29 09:39:52;;;;;;;;;;;;;;;-1.30;83.25;99714.94;4224107;28;19928;-70
2023/11/29 09:41:54;;;;;;;;;;;;;;;-1.28;83.16;99715.66;4222375;28;19971;-70
2023/11/29 09:43:56;;;;;;;;;;;;;;;-1.25;83.05;99717.22;4205111;28;19955;-70
2023/11/29 09:46:00;;;;;;;;;;;;;;;-1.21;82.89;99705.41;4223187;28;20027;-68
2023/11/29 09:48:03;;;;;;;;;;;;;;;-1.19;82.99;99704.31;4223165;28;20011;-67
2023/11/29 09:50:05;;;;;;;;;;;;;;;-1.16;82.74;99697.91;4222759;28;19971;-70
2023/11/29 09:52:07;;;;;;;;;;;;;;;-1.16;82.79;99704.06;4222949;28;20015;-70
2023/11/29 09:54:10;;;;;;;;;;;;;;;-1.15;82.88;99697.78;4224215;28;20026;-70
2023/11/29 09:56:12;;;;;;;;;;;;;;;-1.12;82.83;99704.63;4224018;28;19956;-70
2023/11/29 09:58:14;;;;;;;;;;;;;;;-1.09;82.70;99705.22;4220790;28;19973;-67
2023/11/29 10:00:17;;;;;;;;;;;;;;;-1.06;82.59;99687.41;4221187;28;19974;-70
2023/11/29 10:02:22;;;;;;;;;;;;;;;-1.02;82.38;99694.97;4222528;28;19990;-70
2023/11/29 10:04:24;;;;;;;;;;;;;;;-1.00;82.55;99690.38;4222670;28;19962;-70
2023/11/29 10:06:26;;;;;;;;;;;;;;;-0.99;82.39;99694.72;4223159;28;19970;-70
2023/11/29 10:08:28;;;;;;;;;;;;;;;-0.94;82.16;99691.66;4222916;28;20425;-70
2023/11/29 10:10:34;;;;;;;;;;;;;;;-0.92;82.31;99708.28;4222573;28;19963;-70
2023/11/29 10:12:36;;;;;;;;;;;;;;;-0.86;82.23;99689.22;4223229;28;20481;-71
2023/11/29 10:14:39;;;;;;;;;;;;;;;-0.82;82.06;99689.78;4221833;28;20035;-70
2023/11/29 10:16:41;;;;;;;;;;;;;;;-0.77;81.84;99696.41;4222349;28;19954;-70
2023/11/29 10:18:46;;;;;;;;;;;;;;;-0.76;81.82;99691.91;4223996;28;20023;-70
2023/11/29 10:20:48;;;;;;;;;;;;;;;-0.74;81.59;99682.88;4222970;28;19991;-70
2023/11/29 10:22:49;;;;;;;;;;;;;;;-0.72;81.65;99674.78;4221634;28;19970;-70
2023/11/29 10:24:52;;;;;;;;;;;;;;;-0.71;82.14;99681.75;4223499;27;19971;-70
2023/11/29 10:26:55;;;;;;;;;;;;;;;-0.67;81.90;99683.19;4223433;28;20018;-67
2023/11/29 10:28:57;;;;;;;;;;;;;;;-0.64;81.98;99682.06;4223006;28;19932;-67
2023/11/29 10:30:58;;;;;;;;;;;;;;;-0.63;82.12;99673.16;4220743;28;20413;-70
2023/11/29 10:33:00;;;;;;;;;;;;;;;-0.62;82.36;99678.31;4223066;28;19936;-70